createdAt,value
2016-12-06T00:00:34.011Z,68.21
2016-12-06T00:01:33.994Z,68.21
2016-12-06T00:02:33.974Z,67.84
2016-12-06T00:03:33.954Z,68.12
2016-12-06T00:04:33.932Z,68.02
2016-12-06T00:05:33.918Z,68.02
2016-12-06T00:06:33.889Z,69.53
2016-12-06T00:07:33.871Z,70.57
2016-12-06T00:08:33.849Z,71.42
2016-12-06T00:09:33.830Z,71.8
2016-12-06T00:10:33.809Z,72.64
2016-12-06T00:11:33.788Z,73.11
2016-12-06T00:12:33.768Z,73.77
2016-12-06T00:13:33.750Z,73.58
2016-12-06T00:14:33.726Z,72.92
2016-12-06T00:15:33.707Z,72.45
2016-12-06T00:16:33.684Z,71.98
2016-12-06T00:17:33.667Z,70.38
2016-12-06T00:18:33.644Z,70.19
2016-12-06T00:19:33.626Z,69.35
2016-12-06T00:20:33.603Z,68.59
2016-12-06T00:21:33.583Z,68.97
2016-12-06T00:22:33.561Z,69.63
2016-12-06T00:23:33.541Z,69.53
2016-12-06T00:24:33.521Z,69.91
2016-12-06T00:25:33.503Z,68.68
2016-12-06T00:26:33.479Z,69.44
2016-12-06T00:27:33.460Z,68.78
2016-12-06T00:28:33.440Z,68.59
2016-12-06T00:29:33.420Z,68.59
2016-12-06T00:30:33.396Z,67.93
2016-12-06T00:31:33.377Z,67.65
2016-12-06T00:32:33.356Z,66.99
2016-12-06T00:33:33.337Z,66.42
2016-12-06T00:34:33.315Z,65.77
2016-12-06T00:35:33.300Z,65.2
2016-12-06T00:36:33.273Z,65.01
2016-12-06T00:37:33.253Z,65.2
2016-12-06T00:38:33.233Z,63.79
2016-12-06T00:39:33.211Z,63.6
2016-12-06T00:40:33.200Z,64.07
2016-12-06T00:41:33.170Z,64.64
2016-12-06T00:42:33.150Z,63.6
2016-12-06T00:43:33.129Z,64.07
2016-12-06T00:44:33.113Z,65.01
2016-12-06T00:45:33.094Z,64.54
2016-12-06T00:46:33.067Z,64.16
2016-12-06T00:47:33.051Z,63.5
2016-12-06T00:48:33.027Z,64.16
2016-12-06T00:49:33.009Z,64.16
2016-12-06T00:50:32.986Z,64.07
2016-12-06T00:51:32.965Z,63.22
2016-12-06T00:52:32.946Z,63.03
2016-12-06T00:53:32.923Z,63.32
2016-12-06T00:54:32.905Z,63.22
2016-12-06T00:55:32.884Z,63.22
2016-12-06T00:56:32.880Z,62.56
2016-12-06T00:57:32.839Z,62.56
2016-12-06T00:58:32.821Z,63.13
2016-12-06T00:59:32.801Z,65.11
2016-12-06T01:00:32.780Z,66.61
2016-12-06T01:01:32.759Z,67.46
2016-12-06T01:02:32.740Z,67.84
2016-12-06T01:03:32.717Z,67.27
2016-12-06T01:04:32.696Z,66.33
2016-12-06T01:05:32.679Z,65.01
2016-12-06T01:06:32.659Z,64.92
2016-12-06T01:07:32.635Z,64.92
2016-12-06T01:08:32.614Z,65.39
2016-12-06T01:09:32.593Z,65.2
2016-12-06T01:10:32.574Z,65.39
2016-12-06T01:11:32.553Z,64.83
2016-12-06T01:12:32.532Z,65.3
2016-12-06T01:13:32.511Z,65.01
2016-12-06T01:14:32.492Z,65.2
2016-12-06T01:15:32.469Z,64.83
2016-12-06T01:16:32.451Z,64.35
2016-12-06T01:17:32.428Z,63.88
2016-12-06T01:18:32.412Z,63.69
2016-12-06T01:19:32.389Z,64.07
2016-12-06T01:20:32.366Z,63.88
2016-12-06T01:21:32.347Z,64.07
2016-12-06T01:22:32.330Z,64.26
2016-12-06T01:23:32.306Z,64.35
2016-12-06T01:24:32.293Z,65.2
2016-12-06T01:25:32.264Z,65.01
2016-12-06T01:26:32.244Z,65.67
2016-12-06T01:27:32.226Z,65.67
2016-12-06T01:28:32.255Z,65.2
2016-12-06T01:29:32.183Z,65.67
2016-12-06T01:30:32.161Z,66.24
2016-12-06T01:31:32.142Z,67.65
2016-12-06T01:32:32.118Z,69.72
2016-12-06T01:33:32.105Z,72.64
2016-12-06T01:34:32.078Z,74.9
2016-12-06T01:35:32.059Z,76.89
2016-12-06T01:36:32.034Z,76.98
2016-12-06T01:37:32.018Z,76.41
2016-12-06T01:38:31.995Z,74.53
2016-12-06T01:39:31.974Z,73.68
2016-12-06T01:40:31.956Z,71.89
2016-12-06T01:41:31.935Z,70.57
2016-12-06T01:42:31.912Z,68.59
2016-12-06T01:43:31.894Z,66.33
2016-12-06T01:44:31.872Z,66.24
2016-12-06T01:45:31.853Z,68.31
2016-12-06T01:46:31.831Z,70.48
2016-12-06T01:47:31.812Z,72.74
2016-12-06T01:48:31.789Z,74.05
2016-12-06T01:49:31.768Z,73.96
2016-12-06T01:50:31.747Z,72.27
2016-12-06T01:51:31.726Z,69.63
2016-12-06T01:52:31.706Z,68.5
2016-12-06T01:53:31.685Z,67.46
2016-12-06T01:54:31.664Z,67.55
2016-12-06T01:55:31.645Z,67.55
2016-12-06T01:56:31.653Z,67.27
2016-12-06T01:57:31.603Z,66.42
2016-12-06T01:58:31.584Z,66.42
2016-12-06T01:59:31.561Z,66.99
2016-12-06T02:00:31.542Z,66.33
2016-12-06T02:01:31.522Z,66.52
2016-12-06T02:02:31.498Z,66.42
2016-12-06T02:03:31.478Z,66.89
2016-12-06T02:04:31.458Z,67.46
2016-12-06T02:05:31.441Z,68.12
2016-12-06T02:06:31.416Z,68.12
2016-12-06T02:07:31.399Z,68.78
2016-12-06T02:08:31.373Z,68.68
2016-12-06T02:09:31.355Z,68.59
2016-12-06T02:10:31.333Z,67.55
2016-12-06T02:11:31.313Z,66.8
2016-12-06T02:12:31.323Z,66.05
2016-12-06T02:13:31.271Z,66.33
2016-12-06T02:14:31.250Z,65.48
2016-12-06T02:15:31.230Z,65.77
2016-12-06T02:16:31.210Z,66.52
2016-12-06T02:17:31.188Z,68.31
2016-12-06T02:18:31.165Z,70.57
2016-12-06T02:19:31.146Z,71.23
2016-12-06T02:20:31.126Z,71.7
2016-12-06T02:21:31.106Z,72.45
2016-12-06T02:22:31.084Z,73.3
2016-12-06T02:23:31.064Z,74.05
2016-12-06T02:24:31.044Z,73.49
2016-12-06T02:25:31.023Z,72.08
2016-12-06T02:26:31.000Z,69.91
2016-12-06T02:27:30.982Z,68.5
2016-12-06T02:28:30.960Z,67.55
2016-12-06T02:29:30.940Z,65.86
2016-12-06T02:30:30.918Z,65.11
2016-12-06T02:31:30.897Z,65.11
2016-12-06T02:32:30.879Z,65.67
2016-12-06T02:33:30.857Z,65.67
2016-12-06T02:34:30.836Z,65.77
2016-12-06T02:35:30.816Z,66.52
2016-12-06T02:36:30.795Z,67.84
2016-12-06T02:37:30.773Z,67.74
2016-12-06T02:38:30.757Z,68.5
2016-12-06T02:39:30.731Z,70.1
2016-12-06T02:40:30.714Z,70.38
2016-12-06T02:41:30.690Z,69.82
2016-12-06T02:42:30.672Z,68.59
2016-12-06T02:43:30.648Z,67.65
2016-12-06T02:44:30.629Z,66.05
2016-12-06T02:45:30.607Z,65.58
2016-12-06T02:46:30.587Z,63.6
2016-12-06T02:47:30.566Z,63.88
2016-12-06T02:48:30.545Z,65.39
2016-12-06T02:49:30.525Z,66.33
2016-12-06T02:50:30.503Z,66.14
2016-12-06T02:51:30.483Z,66.42
2016-12-06T02:52:30.463Z,66.8
2016-12-06T02:53:30.444Z,67.65
2016-12-06T02:54:30.419Z,67.36
2016-12-06T02:55:30.400Z,66.33
2016-12-06T02:56:30.377Z,65.77
2016-12-06T02:57:30.357Z,65.2
2016-12-06T02:58:30.649Z,63.79
2016-12-06T02:59:30.314Z,63.5
2016-12-06T03:00:30.295Z,62.84
2016-12-06T03:01:30.274Z,62.56
2016-12-06T03:02:30.251Z,62.47
2016-12-06T03:03:30.234Z,61.99
2016-12-06T03:04:30.212Z,62.09
2016-12-06T03:05:30.194Z,62.18
2016-12-06T03:06:30.170Z,61.71
2016-12-06T03:07:30.148Z,62.94
2016-12-06T03:08:30.130Z,63.6
2016-12-06T03:09:30.107Z,63.79
2016-12-06T03:10:30.086Z,63.5
2016-12-06T03:11:30.095Z,62.65
2016-12-06T03:12:30.046Z,62.18
2016-12-06T03:13:30.024Z,62.84
2016-12-06T03:14:30.007Z,63.32
2016-12-06T03:15:29.983Z,63.5
2016-12-06T03:16:29.961Z,62.56
2016-12-06T03:17:29.946Z,62.94
2016-12-06T03:18:29.923Z,63.41
2016-12-06T03:19:29.904Z,63.13
2016-12-06T03:20:29.882Z,63.13
2016-12-06T03:21:29.859Z,63.22
2016-12-06T03:22:29.842Z,63.5
2016-12-06T03:23:29.821Z,62.09
2016-12-06T03:24:29.797Z,62.28
2016-12-06T03:25:29.777Z,62.09
2016-12-06T03:26:29.761Z,62.84
2016-12-06T03:27:29.735Z,63.03
2016-12-06T03:28:29.713Z,63.5
2016-12-06T03:29:29.699Z,63.88
2016-12-06T03:30:29.677Z,63.41
2016-12-06T03:31:29.683Z,63.5
2016-12-06T03:32:29.633Z,63.5
2016-12-06T03:33:29.614Z,63.88
2016-12-06T03:34:29.591Z,64.16
2016-12-06T03:35:29.577Z,64.92
2016-12-06T03:36:29.550Z,64.64
2016-12-06T03:37:29.528Z,64.26
2016-12-06T03:38:29.508Z,63.88
2016-12-06T03:39:29.485Z,64.16
2016-12-06T03:40:29.463Z,64.73
2016-12-06T03:41:29.445Z,65.2
2016-12-06T03:42:29.430Z,66.05
2016-12-06T03:43:29.408Z,67.18
2016-12-06T03:44:29.385Z,67.27
2016-12-06T03:45:29.368Z,67.08
2016-12-06T03:46:29.347Z,66.33
2016-12-06T03:47:29.322Z,66.71
2016-12-06T03:48:29.302Z,65.48
2016-12-06T03:49:29.283Z,65.67
2016-12-06T03:50:29.260Z,65.58
2016-12-06T03:51:29.238Z,65.3
2016-12-06T03:52:29.215Z,65.58
2016-12-06T03:53:29.197Z,65.86
2016-12-06T03:54:29.174Z,65.95
2016-12-06T03:55:29.156Z,65.77
2016-12-06T03:56:29.133Z,65.3
2016-12-06T03:57:29.114Z,65.67
2016-12-06T03:58:29.091Z,65.77
2016-12-06T03:59:29.072Z,65.3
2016-12-06T04:00:29.051Z,65.11
2016-12-06T04:01:29.029Z,65.48
2016-12-06T04:02:29.032Z,65.86
2016-12-06T04:03:28.986Z,66.61
2016-12-06T04:04:28.968Z,67.08
2016-12-06T04:05:28.945Z,67.08
2016-12-06T04:06:28.925Z,67.46
2016-12-06T04:07:28.905Z,68.12
2016-12-06T04:08:28.883Z,68.31
2016-12-06T04:09:28.861Z,67.84
2016-12-06T04:10:28.844Z,66.71
2016-12-06T04:11:28.821Z,65.3
2016-12-06T04:12:28.801Z,64.07
2016-12-06T04:13:28.783Z,63.32
2016-12-06T04:14:28.759Z,63.03
2016-12-06T04:15:28.738Z,63.13
2016-12-06T04:16:28.715Z,63.32
2016-12-06T04:17:28.697Z,62.56
2016-12-06T04:18:28.677Z,63.13
2016-12-06T04:19:28.656Z,63.41
2016-12-06T04:20:28.634Z,64.26
2016-12-06T04:21:28.614Z,63.88
2016-12-06T04:22:28.591Z,63.22
2016-12-06T04:23:28.572Z,61.99
2016-12-06T04:24:28.553Z,60.58
2016-12-06T04:25:28.531Z,60.21
2016-12-06T04:26:28.509Z,60.21
2016-12-06T04:27:28.487Z,60.86
2016-12-06T04:28:28.467Z,61.15
2016-12-06T04:29:28.452Z,61.81
2016-12-06T04:30:28.426Z,62.56
2016-12-06T04:31:28.404Z,63.32
2016-12-06T04:32:28.383Z,62.94
2016-12-06T04:33:28.365Z,61.99
2016-12-06T04:34:28.342Z,62.28
2016-12-06T04:35:28.328Z,62.84
2016-12-06T04:36:28.300Z,63.32
2016-12-06T04:37:28.281Z,63.32
2016-12-06T04:38:28.260Z,63.03
2016-12-06T04:39:28.238Z,62.94
2016-12-06T04:40:28.216Z,61.99
2016-12-06T04:41:28.196Z,61.15
2016-12-06T04:42:28.176Z,61.05
2016-12-06T04:43:28.156Z,61.15
2016-12-06T04:44:28.133Z,60.86
2016-12-06T04:45:28.114Z,60.86
2016-12-06T04:46:28.089Z,61.99
2016-12-06T04:47:28.096Z,63.32
2016-12-06T04:48:28.050Z,64.16
2016-12-06T04:49:28.030Z,65.01
2016-12-06T04:50:28.007Z,65.58
2016-12-06T04:51:27.989Z,65.01
2016-12-06T04:52:28.282Z,64.92
2016-12-06T04:53:27.947Z,65.01
2016-12-06T04:54:27.924Z,64.16
2016-12-06T04:55:27.906Z,64.64
2016-12-06T04:56:27.885Z,64.26
2016-12-06T04:57:27.862Z,64.64
2016-12-06T04:58:27.845Z,64.26
2016-12-06T04:59:27.824Z,64.45
2016-12-06T05:00:27.798Z,62.94
2016-12-06T05:01:27.778Z,61.52
2016-12-06T05:02:27.760Z,60.11
2016-12-06T05:03:27.742Z,60.39
2016-12-06T05:04:27.719Z,60.58
2016-12-06T05:05:27.695Z,60.68
2016-12-06T05:06:27.674Z,60.21
2016-12-06T05:07:27.653Z,60.96
2016-12-06T05:08:27.633Z,61.05
2016-12-06T05:09:27.613Z,62.37
2016-12-06T05:10:27.591Z,63.13
2016-12-06T05:11:27.571Z,63.69
2016-12-06T05:12:27.551Z,64.07
2016-12-06T05:13:27.530Z,63.88
2016-12-06T05:14:27.507Z,63.98
2016-12-06T05:15:27.486Z,63.03
2016-12-06T05:16:27.465Z,62.84
2016-12-06T05:17:27.446Z,63.88
2016-12-06T05:18:27.429Z,64.16
2016-12-06T05:19:27.402Z,64.45
2016-12-06T05:20:27.382Z,63.5
2016-12-06T05:21:27.365Z,63.32
2016-12-06T05:22:27.340Z,63.32
2016-12-06T05:23:27.321Z,63.69
2016-12-06T05:24:27.299Z,64.54
2016-12-06T05:25:27.278Z,64.64
2016-12-06T05:26:27.256Z,64.73
2016-12-06T05:27:27.236Z,64.83
2016-12-06T05:28:27.215Z,64.07
2016-12-06T05:29:27.224Z,63.32
2016-12-06T05:30:27.174Z,63.5
2016-12-06T05:31:27.154Z,63.98
2016-12-06T05:32:27.134Z,63.79
2016-12-06T05:33:27.110Z,63.41
2016-12-06T05:34:27.090Z,63.88
2016-12-06T05:35:27.070Z,64.45
2016-12-06T05:36:27.048Z,64.16
2016-12-06T05:37:27.028Z,64.35
2016-12-06T05:38:27.006Z,63.6
2016-12-06T05:39:27.009Z,63.13
2016-12-06T05:40:26.970Z,62.84
2016-12-06T05:41:26.943Z,63.13
2016-12-06T05:42:26.925Z,63.5
2016-12-06T05:43:26.902Z,64.26
2016-12-06T05:44:26.893Z,64.92
2016-12-06T05:45:26.858Z,64.92
2016-12-06T05:46:26.839Z,63.88
2016-12-06T05:47:26.817Z,63.32
2016-12-06T05:48:26.797Z,63.22
2016-12-06T05:49:26.776Z,63.69
2016-12-06T05:50:26.754Z,63.41
2016-12-06T05:51:26.733Z,63.5
2016-12-06T05:52:26.715Z,63.32
2016-12-06T05:53:26.691Z,62.84
2016-12-06T05:54:26.672Z,61.99
2016-12-06T05:55:26.651Z,63.88
2016-12-06T05:56:26.633Z,64.16
2016-12-06T05:57:26.612Z,64.35
2016-12-06T05:58:26.585Z,64.26
2016-12-06T05:59:26.566Z,63.6
2016-12-06T06:00:26.545Z,62.18
2016-12-06T06:01:26.527Z,61.9
2016-12-06T06:02:26.526Z,62.18
2016-12-06T06:03:26.486Z,62.47
2016-12-06T06:04:26.463Z,63.13
2016-12-06T06:05:26.444Z,63.32
2016-12-06T06:06:26.419Z,63.41
2016-12-06T06:07:26.397Z,63.5
2016-12-06T06:08:26.379Z,63.69
2016-12-06T06:09:26.356Z,63.88
2016-12-06T06:10:26.336Z,64.45
2016-12-06T06:11:26.315Z,64.16
2016-12-06T06:12:26.294Z,64.26
2016-12-06T06:13:26.273Z,64.83
2016-12-06T06:14:26.251Z,64.07
2016-12-06T06:15:26.230Z,64.26
2016-12-06T06:16:26.210Z,65.11
2016-12-06T06:17:26.191Z,65.39
2016-12-06T06:18:26.166Z,65.01
2016-12-06T06:19:26.148Z,64.83
2016-12-06T06:20:26.124Z,64.83
2016-12-06T06:21:26.105Z,64.92
2016-12-06T06:22:26.395Z,65.67
2016-12-06T06:23:26.063Z,66.33
2016-12-06T06:24:26.041Z,66.52
2016-12-06T06:25:26.023Z,66.42
2016-12-06T06:26:26.001Z,66.05
2016-12-06T06:27:25.979Z,66.05
2016-12-06T06:28:25.958Z,65.11
2016-12-06T06:29:25.939Z,65.77
2016-12-06T06:30:25.919Z,66.05
2016-12-06T06:31:25.920Z,65.86
2016-12-06T06:32:25.886Z,65.86
2016-12-06T06:33:25.853Z,65.77
2016-12-06T06:34:25.837Z,65.58
2016-12-06T06:35:25.811Z,66.14
2016-12-06T06:36:25.789Z,66.71
2016-12-06T06:37:25.772Z,66.61
2016-12-06T06:38:25.748Z,65.58
2016-12-06T06:39:25.726Z,64.64
2016-12-06T06:40:25.707Z,64.83
2016-12-06T06:41:25.686Z,64.16
2016-12-06T06:42:25.664Z,64.16
2016-12-06T06:43:25.641Z,64.64
2016-12-06T06:44:25.624Z,65.01
2016-12-06T06:45:25.606Z,65.3
2016-12-06T06:46:25.579Z,65.2
2016-12-06T06:47:25.560Z,65.01
2016-12-06T06:48:25.539Z,64.45
2016-12-06T06:49:25.518Z,64.16
2016-12-06T06:50:25.494Z,64.45
2016-12-06T06:51:25.474Z,64.07
2016-12-06T06:52:25.453Z,63.98
2016-12-06T06:53:25.745Z,64.35
2016-12-06T06:54:25.412Z,64.73
2016-12-06T06:55:25.390Z,65.86
2016-12-06T06:56:25.374Z,66.24
2016-12-06T06:57:25.350Z,66.14
2016-12-06T06:58:25.330Z,66.24
2016-12-06T06:59:25.310Z,65.58
2016-12-06T07:00:25.285Z,64.64
2016-12-06T07:01:25.266Z,64.45
2016-12-06T07:02:25.244Z,64.45
2016-12-06T07:03:25.224Z,64.92
2016-12-06T07:04:25.202Z,64.83
2016-12-06T07:05:25.179Z,64.92
2016-12-06T07:06:25.159Z,65.48
2016-12-06T07:07:25.140Z,65.3
2016-12-06T07:08:25.117Z,65.67
2016-12-06T07:09:25.096Z,65.01
2016-12-06T07:10:25.074Z,65.11
2016-12-06T07:11:25.054Z,64.07
2016-12-06T07:12:25.032Z,64.26
2016-12-06T07:13:25.014Z,64.16
2016-12-06T07:14:24.991Z,63.88
2016-12-06T07:15:24.971Z,63.5
2016-12-06T07:16:24.948Z,63.6
2016-12-06T07:17:24.926Z,63.69
2016-12-06T07:18:24.914Z,63.79
2016-12-06T07:19:24.887Z,63.79
2016-12-06T07:20:24.866Z,63.69
2016-12-06T07:21:24.844Z,63.98
2016-12-06T07:22:24.823Z,63.98
2016-12-06T07:23:24.801Z,63.88
2016-12-06T07:24:24.789Z,63.98
2016-12-06T07:25:24.760Z,64.26
2016-12-06T07:26:24.740Z,64.07
2016-12-06T07:27:24.717Z,64.35
2016-12-06T07:28:24.698Z,64.16
2016-12-06T07:29:24.677Z,64.92
2016-12-06T07:30:24.655Z,65.39
2016-12-06T07:31:24.637Z,65.11
2016-12-06T07:32:24.613Z,64.35
2016-12-06T07:33:24.593Z,64.35
2016-12-06T07:34:24.572Z,63.88
2016-12-06T07:35:24.550Z,63.69
2016-12-06T07:36:24.528Z,63.03
2016-12-06T07:37:24.508Z,62.75
2016-12-06T07:38:24.487Z,63.32
2016-12-06T07:39:24.467Z,63.32
2016-12-06T07:40:24.448Z,67.74
2016-12-06T07:41:24.427Z,68.87
2016-12-06T07:42:24.404Z,68.12
2016-12-06T07:43:24.383Z,68.78
2016-12-06T07:44:24.362Z,68.68
2016-12-06T07:45:24.340Z,69.25
2016-12-06T07:46:24.320Z,70.38
2016-12-06T07:47:24.300Z,70.1
2016-12-06T07:48:24.276Z,69.16
2016-12-06T07:49:24.257Z,68.21
2016-12-06T07:50:24.237Z,66.89
2016-12-06T07:51:24.216Z,65.58
2016-12-06T07:52:24.195Z,64.64
2016-12-06T07:53:24.173Z,63.5
2016-12-06T07:54:24.153Z,62.28
2016-12-06T07:55:24.132Z,62.09
2016-12-06T07:56:24.112Z,61.99
2016-12-06T07:57:24.091Z,63.13
2016-12-06T07:58:24.070Z,65.01
2016-12-06T07:59:24.051Z,65.58
2016-12-06T08:00:24.029Z,65.2
2016-12-06T08:01:24.006Z,64.54
2016-12-06T08:02:23.987Z,64.45
2016-12-06T08:03:23.967Z,64.35
2016-12-06T08:04:23.946Z,64.16
2016-12-06T08:05:23.925Z,63.6
2016-12-06T08:06:23.906Z,63.98
2016-12-06T08:07:23.885Z,63.79
2016-12-06T08:08:23.864Z,63.69
2016-12-06T08:09:23.842Z,62.47
2016-12-06T08:10:23.820Z,61.81
2016-12-06T08:11:23.802Z,61.99
2016-12-06T08:12:23.782Z,61.81
2016-12-06T08:13:23.758Z,61.81
2016-12-06T08:14:23.738Z,62.09
2016-12-06T08:15:23.716Z,62.09
2016-12-06T08:16:23.698Z,62.37
2016-12-06T08:17:23.679Z,61.71
2016-12-06T08:18:23.656Z,61.24
2016-12-06T08:19:23.638Z,61.52
2016-12-06T08:20:23.614Z,60.86
2016-12-06T08:21:23.593Z,60.58
2016-12-06T08:22:23.573Z,59.55
2016-12-06T08:23:23.554Z,59.74
2016-12-06T08:24:23.532Z,59.55
2016-12-06T08:25:23.512Z,60.49
2016-12-06T08:26:23.494Z,60.11
2016-12-06T08:27:23.470Z,60.68
2016-12-06T08:28:23.451Z,61.52
2016-12-06T08:29:23.429Z,62.09
2016-12-06T08:30:23.411Z,62.84
2016-12-06T08:31:23.388Z,62.84
2016-12-06T08:32:23.371Z,62.75
2016-12-06T08:33:23.348Z,62.12
2016-12-06T08:34:23.327Z,62.03
2016-12-06T08:35:23.306Z,61.93
2016-12-06T08:36:23.314Z,62.12
2016-12-06T08:37:23.271Z,62.31
2016-12-06T08:38:23.246Z,62.03
2016-12-06T08:39:23.228Z,61.27
2016-12-06T08:40:23.206Z,60.8
2016-12-06T08:41:23.184Z,60.8
2016-12-06T08:42:23.165Z,60.99
2016-12-06T08:43:23.143Z,60.24
2016-12-06T08:44:23.127Z,59.3
2016-12-06T08:45:23.104Z,58.35
2016-12-06T08:46:23.082Z,58.16
2016-12-06T08:47:23.063Z,58.45
2016-12-06T08:48:23.040Z,58.63
2016-12-06T08:49:23.023Z,58.82
2016-12-06T08:50:23.004Z,57.97
2016-12-06T08:51:22.987Z,58.07
2016-12-06T08:52:22.961Z,58.63
2016-12-06T08:53:22.941Z,58.54
2016-12-06T08:54:22.921Z,58.73
2016-12-06T08:55:22.899Z,59.01
2016-12-06T08:56:23.198Z,58.63
2016-12-06T08:57:22.860Z,58.63
2016-12-06T08:58:22.841Z,57.5
2016-12-06T08:59:22.819Z,57.12
2016-12-06T09:00:22.799Z,55.05
2016-12-06T09:01:22.781Z,53.83
2016-12-06T09:02:22.759Z,53.64
2016-12-06T09:03:22.740Z,53.92
2016-12-06T09:04:22.720Z,54.68
2016-12-06T09:05:22.699Z,55.71
2016-12-06T09:06:22.680Z,56.46
2016-12-06T09:07:22.659Z,57.12
2016-12-06T09:08:22.640Z,56.65
2016-12-06T09:09:22.620Z,56.37
2016-12-06T09:10:22.601Z,56.56
2016-12-06T09:11:22.582Z,56.09
2016-12-06T09:12:22.561Z,55.9
2016-12-06T09:13:22.540Z,55.99
2016-12-06T09:14:22.522Z,56.75
2016-12-06T09:15:22.500Z,56.65
2016-12-06T09:16:22.481Z,55.9
2016-12-06T09:17:22.463Z,56.75
2016-12-06T09:18:22.442Z,57.03
2016-12-06T09:19:22.419Z,57.69
2016-12-06T09:20:22.401Z,57.88
2016-12-06T09:21:22.380Z,58.63
2016-12-06T09:22:22.381Z,59.77
2016-12-06T09:23:22.344Z,60.33
2016-12-06T09:24:22.320Z,61.08
2016-12-06T09:25:22.622Z,61.36
2016-12-06T09:26:22.283Z,61.46
2016-12-06T09:27:22.262Z,60.99
2016-12-06T09:28:22.242Z,61.27
2016-12-06T09:29:22.223Z,62.21
2016-12-06T09:30:22.201Z,62.81
2016-12-06T09:31:22.184Z,63.47
2016-12-06T09:32:22.162Z,63.38
2016-12-06T09:33:22.143Z,63.1
2016-12-06T09:34:22.440Z,62.15
2016-12-06T09:35:22.423Z,63
2016-12-06T09:36:22.086Z,62.91
2016-12-06T09:37:22.066Z,62.06
2016-12-06T09:38:22.050Z,62.15
2016-12-06T09:39:22.027Z,62.34
2016-12-06T09:40:22.012Z,62.53
2016-12-06T09:41:21.991Z,63
2016-12-06T09:42:21.972Z,63
2016-12-06T09:43:21.949Z,61.77
2016-12-06T09:44:21.929Z,61.11
2016-12-06T09:45:21.915Z,60.74
2016-12-06T09:46:23.079Z,60.64
2016-12-06T09:47:21.874Z,60.17
2016-12-06T09:48:21.851Z,61.02
2016-12-06T09:49:21.841Z,61.4
2016-12-06T09:50:21.815Z,61.96
2016-12-06T09:51:21.794Z,62.06
2016-12-06T09:52:21.776Z,62.34
2016-12-06T09:53:21.755Z,62.62
2016-12-06T09:54:21.736Z,64.04
2016-12-06T09:55:21.717Z,65.17
2016-12-06T09:56:21.697Z,65.26
2016-12-06T09:57:21.677Z,65.73
2016-12-06T09:58:21.659Z,65.08
2016-12-06T09:59:21.643Z,65.73
2016-12-06T10:00:21.620Z,65.73
2016-12-06T10:01:21.604Z,65.92
2016-12-06T10:02:21.580Z,66.58
2016-12-06T10:03:21.563Z,67.06
2016-12-06T10:04:21.544Z,67.34
2016-12-06T10:05:21.524Z,66.58
2016-12-06T10:06:21.505Z,66.68
2016-12-06T10:07:21.492Z,66.3
2016-12-06T10:08:21.466Z,66.68
2016-12-06T10:09:21.445Z,67.15
2016-12-06T10:10:21.428Z,67.62
2016-12-06T10:11:21.408Z,68.41
2016-12-06T10:12:21.389Z,69.54
2016-12-06T10:13:21.371Z,69.45
2016-12-06T10:14:21.357Z,69.83
2016-12-06T10:15:21.333Z,69.73
2016-12-06T10:16:21.333Z,69.17
2016-12-06T10:17:21.297Z,70.39
2016-12-06T10:18:21.279Z,70.49
2016-12-06T10:19:21.262Z,70.96
2016-12-06T10:20:21.238Z,70.3
2016-12-06T10:21:21.220Z,70.3
2016-12-06T10:22:21.201Z,70.58
2016-12-06T10:23:21.182Z,71.06
2016-12-06T10:24:21.164Z,72
2016-12-06T10:25:21.148Z,72.85
2016-12-06T10:26:21.127Z,73.6
2016-12-06T10:27:21.106Z,73.51
2016-12-06T10:28:21.090Z,74.36
2016-12-06T10:29:21.085Z,74.45
2016-12-06T10:30:21.060Z,75.11
2016-12-06T10:31:21.031Z,74.83
2016-12-06T10:32:21.011Z,75.59
2016-12-06T10:33:20.993Z,75.49
2016-12-06T10:34:20.977Z,75.78
2016-12-06T10:35:20.958Z,75.49
2016-12-06T10:36:20.966Z,75.4
2016-12-06T10:37:20.919Z,75.4
2016-12-06T10:38:20.900Z,75.3
2016-12-06T10:39:21.229Z,75.68
2016-12-06T10:40:20.865Z,75.87
2016-12-06T10:41:20.846Z,76.25
2016-12-06T10:42:20.827Z,76.19
2016-12-06T10:43:20.833Z,76.85
2016-12-06T10:44:20.789Z,77.89
2016-12-06T10:45:20.801Z,81.57
2016-12-06T10:46:20.753Z,84.22
2016-12-06T10:47:20.732Z,85.25
2016-12-06T10:48:20.717Z,89.03
2016-12-06T10:49:20.697Z,95.17
2016-12-06T10:50:20.679Z,93.56
2016-12-06T10:51:20.660Z,93.66
2016-12-06T10:52:20.645Z,94.41
2016-12-06T10:53:20.626Z,93.56
2016-12-06T10:54:20.608Z,94.32
2016-12-06T10:55:20.589Z,97.72
2016-12-06T10:56:20.569Z,98.66
2016-12-06T10:57:20.556Z,98.75
2016-12-06T10:58:20.531Z,99.32
2016-12-06T10:59:20.513Z,98.94
2016-12-06T11:00:20.498Z,98.57
2016-12-06T11:01:20.477Z,99.99
2016-12-06T11:02:20.471Z,99.99
2016-12-06T11:03:20.442Z,99.99
2016-12-06T11:04:20.425Z,99.99
2016-12-06T11:05:20.405Z,99.99
2016-12-06T11:06:20.388Z,99.99
2016-12-06T11:07:20.370Z,99.99
2016-12-06T11:08:20.351Z,99.99
2016-12-06T11:09:20.333Z,99.99
2016-12-06T11:10:20.635Z,99.99
2016-12-06T11:11:20.298Z,99.99
2016-12-06T11:12:20.286Z,99.99
2016-12-06T11:13:20.260Z,99.99
2016-12-06T11:14:20.252Z,99.99
2016-12-06T11:15:20.226Z,99.99
2016-12-06T11:16:20.207Z,99.99
2016-12-06T11:17:20.189Z,99.99
2016-12-06T11:18:20.170Z,99.99
2016-12-06T11:19:20.152Z,99.99
2016-12-06T11:20:20.133Z,99.99
2016-12-06T11:21:20.116Z,99.99
2016-12-06T11:22:20.124Z,99.99
2016-12-06T11:23:20.078Z,99.99
2016-12-06T11:24:20.062Z,99.99
2016-12-06T11:25:20.048Z,99.99
2016-12-06T11:26:20.025Z,99.99
2016-12-06T11:27:20.010Z,99.99
2016-12-06T11:28:19.990Z,99.99
2016-12-06T11:29:19.973Z,99.99
2016-12-06T11:30:19.962Z,99.99
2016-12-06T11:31:19.935Z,99.99
2016-12-06T11:32:19.921Z,99.99
2016-12-06T11:33:19.901Z,99.99
2016-12-06T11:34:19.881Z,99.99
2016-12-06T11:35:19.864Z,99.99
2016-12-06T11:36:19.846Z,99.99
2016-12-06T11:37:19.827Z,99.99
2016-12-06T11:38:19.840Z,99.99
2016-12-06T11:39:19.796Z,99.99
2016-12-06T11:40:19.774Z,99.99
2016-12-06T11:41:19.757Z,99.99
2016-12-06T11:42:19.743Z,99.99
2016-12-06T11:43:19.729Z,99.99
2016-12-06T11:44:19.703Z,99.99
2016-12-06T11:45:19.685Z,99.99
2016-12-06T11:46:19.667Z,99.99
2016-12-06T11:47:19.649Z,99.99
2016-12-06T11:48:19.637Z,99.99
2016-12-06T11:49:19.615Z,99.99
2016-12-06T11:50:19.597Z,99.99
2016-12-06T11:51:19.580Z,99.99
2016-12-06T11:52:19.560Z,99.99
2016-12-06T11:53:19.541Z,99.99
2016-12-06T11:54:19.525Z,99.99
2016-12-06T11:55:19.506Z,99.99
2016-12-06T11:56:19.488Z,99.99
2016-12-06T11:57:19.471Z,99.99
2016-12-06T11:58:19.455Z,99.99
2016-12-06T11:59:19.435Z,99.99
2016-12-06T12:00:19.416Z,99.99
2016-12-06T12:01:19.401Z,99.99
2016-12-06T12:02:19.380Z,99.99
2016-12-06T12:03:19.366Z,99.99
2016-12-06T12:04:19.345Z,99.99
2016-12-06T12:05:19.347Z,99.99
2016-12-06T12:06:19.313Z,99.99
2016-12-06T12:07:19.297Z,99.99
2016-12-06T12:08:19.276Z,99.99
2016-12-06T12:09:19.259Z,99.99
2016-12-06T12:10:19.241Z,99.99
2016-12-06T12:11:19.223Z,99.99
2016-12-06T12:12:19.207Z,99.99
2016-12-06T12:13:19.187Z,99.99
2016-12-06T12:14:19.175Z,99.99
2016-12-06T12:15:19.154Z,99.99
2016-12-06T12:16:19.135Z,99.99
2016-12-06T12:17:19.431Z,99.99
2016-12-06T12:18:19.098Z,99.99
2016-12-06T12:19:19.082Z,99.99
2016-12-06T12:20:19.065Z,99.99
2016-12-06T12:21:19.046Z,99.99
2016-12-06T12:22:19.029Z,99.99
2016-12-06T12:23:19.012Z,99.99
2016-12-06T12:24:18.994Z,99.99
2016-12-06T12:25:18.977Z,99.99
2016-12-06T12:26:18.959Z,99.99
2016-12-06T12:27:18.942Z,99.99
2016-12-06T12:28:18.925Z,99.99
2016-12-06T12:29:18.906Z,99.99
2016-12-06T12:30:18.891Z,99.99
2016-12-06T12:31:18.872Z,99.99
2016-12-06T12:32:18.855Z,99.99
2016-12-06T12:33:18.836Z,99.99
2016-12-06T12:34:18.820Z,99.99
2016-12-06T12:35:18.805Z,99.99
2016-12-06T12:36:18.786Z,99.99
2016-12-06T12:37:18.767Z,99.99
2016-12-06T12:38:18.749Z,99.99
2016-12-06T12:39:18.733Z,99.99
2016-12-06T12:40:18.715Z,99.99
2016-12-06T12:41:18.699Z,99.99
2016-12-06T12:42:18.679Z,99.99
2016-12-06T12:43:18.664Z,99.99
2016-12-06T12:44:18.644Z,99.99
2016-12-06T12:45:18.627Z,99.99
2016-12-06T12:46:18.610Z,99.99
2016-12-06T12:47:18.593Z,99.99
2016-12-06T12:48:18.573Z,99.99
2016-12-06T12:49:18.558Z,99.99
2016-12-06T12:50:18.540Z,99.99
2016-12-06T12:51:18.521Z,99.99
2016-12-06T12:52:18.505Z,99.99
2016-12-06T12:53:18.490Z,99.99
2016-12-06T12:54:18.473Z,99.99
2016-12-06T12:55:18.456Z,99.99